createdAt,value
2022-08-07T00:01:44.015Z,2.33
2022-08-07T00:04:06.780Z,2.45
2022-08-07T00:06:36.673Z,3.10
2022-08-07T00:09:17.018Z,2.78
2022-08-07T00:11:55.787Z,2.45
2022-08-07T00:14:25.497Z,2.50
2022-08-07T00:17:01.595Z,2.37
2022-08-07T00:20:00.689Z,2.60
2022-08-07T00:22:24.459Z,2.40
2022-08-07T00:25:11.118Z,2.50
2022-08-07T00:27:53.512Z,2.62
2022-08-07T00:30:28.086Z,3.67
2022-08-07T00:32:59.940Z,2.50
2022-08-07T00:35:30.525Z,2.60
2022-08-07T00:40:39.194Z,2.30
2022-08-07T00:43:09.694Z,2.50
2022-08-07T00:45:41.583Z,2.70
2022-08-07T00:48:13.665Z,2.62
2022-08-07T00:50:50.887Z,2.55
2022-08-07T00:53:20.568Z,2.85
2022-08-07T00:56:00.678Z,3.00
2022-08-07T00:58:31.346Z,2.67
2022-08-07T01:00:58.981Z,2.40
2022-08-07T01:03:57.235Z,2.87
2022-08-07T01:06:13.346Z,2.97
2022-08-07T01:08:43.194Z,2.83
2022-08-07T01:12:09.263Z,2.47
2022-08-07T01:14:09.108Z,2.50
2022-08-07T01:16:37.220Z,2.78
2022-08-07T01:19:18.570Z,2.60
2022-08-07T01:21:53.376Z,2.85
2022-08-07T01:24:23.853Z,2.85
2022-08-07T01:26:52.695Z,3.00
2022-08-07T01:29:27.654Z,2.62
2022-08-07T01:31:59.660Z,2.50
2022-08-07T01:34:31.485Z,2.95
2022-08-07T01:37:00.437Z,2.92
2022-08-07T01:39:41.279Z,3.25
2022-08-07T01:42:38.474Z,2.97
2022-08-07T01:45:04.693Z,3.10
2022-08-07T01:48:18.170Z,3.00
2022-08-07T01:50:29.819Z,2.80
2022-08-07T01:53:01.807Z,3.40
2022-08-07T01:55:40.090Z,2.80
2022-08-07T01:58:29.250Z,2.67
2022-08-07T02:01:09.751Z,3.00
2022-08-07T02:03:57.704Z,3.00
2022-08-07T02:06:31.764Z,2.75
2022-08-07T02:09:03.828Z,3.12
2022-08-07T02:12:03.015Z,3.08
2022-08-07T02:17:13.344Z,3.53
2022-08-07T02:20:05.246Z,3.15
2022-08-07T02:22:41.085Z,2.95
2022-08-07T02:25:17.285Z,3.08
2022-08-07T02:27:52.324Z,2.80
2022-08-07T02:30:24.494Z,3.17
2022-08-07T02:33:00.159Z,2.87
2022-08-07T02:36:29.081Z,3.17
2022-08-07T02:40:57.177Z,2.72
2022-08-07T02:43:24.465Z,3.30
2022-08-07T02:45:54.792Z,3.05
2022-08-07T02:48:26.922Z,3.08
2022-08-07T02:50:57.959Z,3.35
2022-08-07T02:53:29.158Z,3.47
2022-08-07T02:56:02.218Z,3.55
2022-08-07T02:58:34.111Z,3.08
2022-08-07T03:01:03.000Z,3.30
2022-08-07T03:03:49.913Z,3.20
2022-08-07T03:06:25.966Z,3.55
2022-08-07T03:09:11.205Z,3.20
2022-08-07T03:11:51.930Z,3.47
2022-08-07T03:14:26.222Z,3.40
2022-08-07T03:16:56.740Z,3.37
2022-08-07T03:19:24.889Z,3.35
2022-08-07T03:21:57.161Z,3.20
2022-08-07T03:24:28.062Z,3.50
2022-08-07T03:27:00.556Z,3.75
2022-08-07T03:29:33.710Z,6.00
2022-08-07T03:32:08.376Z,4.35
2022-08-07T03:34:47.437Z,4.37
2022-08-07T03:37:32.687Z,4.10
2022-08-07T03:40:15.174Z,4.03
2022-08-07T03:42:43.765Z,3.90
2022-08-07T03:45:12.079Z,4.37
2022-08-07T03:48:01.127Z,4.70
2022-08-07T03:50:32.121Z,4.18
2022-08-07T03:53:02.979Z,4.85
2022-08-07T03:55:46.155Z,4.80
2022-08-07T03:59:05.500Z,4.35
2022-08-07T04:01:10.950Z,4.57
2022-08-07T04:03:49.772Z,4.78
2022-08-07T04:06:37.594Z,4.93
2022-08-07T04:09:10.987Z,4.18
2022-08-07T04:12:27.667Z,4.50
2022-08-07T04:14:38.733Z,6.83
2022-08-07T04:17:20.336Z,4.75
2022-08-07T04:19:52.728Z,4.30
2022-08-07T04:22:27.443Z,4.05
2022-08-07T04:25:01.333Z,4.65
2022-08-07T04:27:36.029Z,4.32
2022-08-07T04:30:11.800Z,4.25
2022-08-07T04:32:58.449Z,4.37
2022-08-07T04:35:35.261Z,3.50
2022-08-07T04:38:07.942Z,3.17
2022-08-07T04:40:51.187Z,3.95
2022-08-07T04:44:10.027Z,4.15
2022-08-07T04:46:34.659Z,4.18
2022-08-07T04:49:37.777Z,4.22
2022-08-07T04:52:14.919Z,4.10
2022-08-07T04:55:14.882Z,4.25
2022-08-07T04:58:32.155Z,3.53
2022-08-07T05:01:16.717Z,3.92
2022-08-07T05:04:06.483Z,3.08
2022-08-07T05:06:43.376Z,3.22
2022-08-07T05:09:42.901Z,3.10
2022-08-07T05:12:15.547Z,3.37
2022-08-07T05:15:03.254Z,3.55
2022-08-07T05:17:52.638Z,3.80
2022-08-07T05:20:38.641Z,3.15
2022-08-07T05:23:23.180Z,3.60
2022-08-07T05:26:11.671Z,4.10
2022-08-07T05:28:48.777Z,3.47
2022-08-07T05:31:20.668Z,4.62
2022-08-07T05:34:04.900Z,4.00
2022-08-07T05:36:35.519Z,4.22
2022-08-07T05:40:05.773Z,4.32
2022-08-07T05:42:02.238Z,4.03
2022-08-07T05:44:34.433Z,4.30
2022-08-07T05:47:18.854Z,4.53
2022-08-07T05:49:51.500Z,4.45
2022-08-07T05:52:20.386Z,4.12
2022-08-07T05:54:58.767Z,4.50
2022-08-07T05:57:37.075Z,4.10
2022-08-07T06:00:07.651Z,4.50
2022-08-07T06:02:49.386Z,4.57
2022-08-07T06:05:19.619Z,4.00
2022-08-07T06:08:14.134Z,4.57
2022-08-07T06:10:36.893Z,4.15
2022-08-07T06:13:04.942Z,4.15
2022-08-07T06:15:38.498Z,4.85
2022-08-07T06:18:13.790Z,4.65
2022-08-07T06:20:50.859Z,3.70
2022-08-07T06:24:37.160Z,4.00
2022-08-07T06:26:20.428Z,4.00
2022-08-07T06:28:53.590Z,5.37
2022-08-07T06:31:21.246Z,4.82
2022-08-07T06:34:06.111Z,4.18
2022-08-07T06:36:35.135Z,4.22
2022-08-07T06:40:17.881Z,4.20
2022-08-07T06:42:02.689Z,3.30
2022-08-07T06:44:39.677Z,3.50
2022-08-07T06:47:12.172Z,5.62
2022-08-07T06:49:51.160Z,3.85
2022-08-07T06:52:31.927Z,3.22
2022-08-07T06:55:32.352Z,4.05
2022-08-07T06:58:05.942Z,3.45
2022-08-07T07:00:42.439Z,3.37
2022-08-07T07:03:14.376Z,3.30
2022-08-07T07:06:02.740Z,2.70
2022-08-07T07:08:33.945Z,2.70
2022-08-07T07:11:13.508Z,2.60
2022-08-07T07:13:58.312Z,2.58
2022-08-07T07:16:31.490Z,2.62
2022-08-07T07:19:40.930Z,2.58
2022-08-07T07:22:11.870Z,4.10
2022-08-07T07:24:43.223Z,2.55
2022-08-07T07:27:35.670Z,3.30
2022-08-07T07:30:32.794Z,3.08
2022-08-07T07:33:04.019Z,2.50
2022-08-07T07:35:44.144Z,3.22
2022-08-07T07:38:23.741Z,2.87
2022-08-07T07:40:52.329Z,3.28
2022-08-07T07:43:27.764Z,3.50
2022-08-07T07:46:53.180Z,2.77
2022-08-07T07:49:00.016Z,2.55
2022-08-07T07:51:58.406Z,2.28
2022-08-07T07:54:24.499Z,2.67
2022-08-07T07:56:55.558Z,2.78
2022-08-07T07:59:52.592Z,5.40
2022-08-07T08:02:22.520Z,3.12
2022-08-07T08:05:14.512Z,2.95
2022-08-07T08:07:51.825Z,3.22
2022-08-07T08:10:35.689Z,2.70
2022-08-07T08:13:06.585Z,2.10
2022-08-07T08:15:43.661Z,2.30
2022-08-07T08:18:27.930Z,2.53
2022-08-07T08:20:58.281Z,2.10
2022-08-07T08:23:43.804Z,1.90
2022-08-07T08:26:52.400Z,2.15
2022-08-07T08:29:20.117Z,1.92
2022-08-07T08:31:58.892Z,2.25
2022-08-07T08:34:39.394Z,1.95
2022-08-07T08:39:39.314Z,1.75
2022-08-07T08:42:27.306Z,1.80
2022-08-07T08:45:26.656Z,1.90
2022-08-07T08:48:32.395Z,1.62
2022-08-07T08:52:00.859Z,1.73
2022-08-07T08:54:36.794Z,2.12
2022-08-07T08:57:08.600Z,1.80
2022-08-07T08:59:57.294Z,1.92
2022-08-07T09:02:49.665Z,1.67
2022-08-07T09:05:36.711Z,2.03
2022-08-07T09:08:10.635Z,2.20
2022-08-07T09:10:45.166Z,7.72
2022-08-07T09:13:36.997Z,1.83
2022-08-07T09:16:29.698Z,1.95
2022-08-07T09:19:51.000Z,2.75
2022-08-07T09:24:28.695Z,1.90
2022-08-07T09:25:28.000Z,2.15
2022-08-07T09:30:03.265Z,1.87
2022-08-07T09:30:57.795Z,2.00
2022-08-07T09:33:40.847Z,3.05
2022-08-07T09:36:37.382Z,2.17
2022-08-07T09:39:55.488Z,1.67
2022-08-07T09:42:32.989Z,2.05
2022-08-07T09:47:23.619Z,1.87
2022-08-07T09:48:49.987Z,1.80
2022-08-07T09:52:15.266Z,1.60
2022-08-07T09:54:40.853Z,1.37
2022-08-07T09:57:30.046Z,1.70
2022-08-07T10:00:14.544Z,2.00
2022-08-07T10:04:03.019Z,1.80
2022-08-07T10:06:24.360Z,1.60
2022-08-07T10:09:23.613Z,4.72
2022-08-07T10:12:26.350Z,2.08
2022-08-07T10:15:19.939Z,3.55
2022-08-07T10:18:28.170Z,5.22
2022-08-07T10:21:14.927Z,1.95
2022-08-07T10:24:23.431Z,2.00
2022-08-07T10:27:23.083Z,2.00
2022-08-07T10:30:16.651Z,2.03
2022-08-07T10:32:53.783Z,1.98
2022-08-07T10:35:55.723Z,3.05
2022-08-07T10:38:54.105Z,2.50
2022-08-07T10:41:51.696Z,2.03
2022-08-07T10:44:37.987Z,5.10
2022-08-07T10:47:26.947Z,2.25
2022-08-07T10:50:28.793Z,2.62
2022-08-07T10:53:08.255Z,2.80
2022-08-07T10:55:45.975Z,2.80
2022-08-07T10:58:31.995Z,1.98
2022-08-07T11:01:35.483Z,2.17
2022-08-07T11:04:34.730Z,2.28
2022-08-07T11:07:56.527Z,2.17
2022-08-07T11:10:07.174Z,2.55
2022-08-07T11:12:43.447Z,2.50
2022-08-07T11:15:17.505Z,2.17
2022-08-07T11:17:50.426Z,2.45
2022-08-07T11:20:40.536Z,2.53
2022-08-07T11:23:26.370Z,2.80
2022-08-07T11:26:27.049Z,3.45
2022-08-07T11:29:13.287Z,3.67
2022-08-07T11:32:01.435Z,6.37
2022-08-07T11:34:43.717Z,4.37
2022-08-07T11:37:38.505Z,8.75
2022-08-07T11:40:42.267Z,3.70
2022-08-07T11:43:41.353Z,4.18
2022-08-07T11:46:34.300Z,2.70
2022-08-07T11:50:18.730Z,4.60
2022-08-07T11:52:50.343Z,3.10
2022-08-07T11:56:19.809Z,3.60
2022-08-07T11:58:33.735Z,2.90
2022-08-07T12:01:09.689Z,2.62
2022-08-07T12:03:47.832Z,2.80
2022-08-07T12:06:56.317Z,5.20
2022-08-07T12:09:36.492Z,3.40
2022-08-07T12:12:12.112Z,3.28
2022-08-07T12:15:00.286Z,7.82
2022-08-07T12:17:59.247Z,3.53
2022-08-07T12:20:41.766Z,3.72
2022-08-07T12:24:05.711Z,2.95
2022-08-07T12:26:29.866Z,3.03
2022-08-07T12:29:09.118Z,2.92
2022-08-07T12:31:52.957Z,2.80
2022-08-07T12:34:32.743Z,2.90
2022-08-07T12:37:00.919Z,3.40
2022-08-07T12:39:42.772Z,3.00
2022-08-07T12:42:13.274Z,3.22
2022-08-07T12:44:45.982Z,3.03
2022-08-07T12:47:31.856Z,3.75
2022-08-07T12:50:39.850Z,3.08
2022-08-07T12:53:24.319Z,3.15
2022-08-07T12:56:10.502Z,3.22
2022-08-07T12:58:43.974Z,3.00
2022-08-07T13:01:19.635Z,3.22
2022-08-07T13:04:19.016Z,3.17
2022-08-07T13:08:12.931Z,3.28
2022-08-07T13:10:51.586Z,3.37
2022-08-07T13:13:48.262Z,3.30
2022-08-07T13:16:25.081Z,3.30
2022-08-07T13:19:35.194Z,3.40
2022-08-07T13:22:31.184Z,4.10
2022-08-07T13:28:11.504Z,3.70
2022-08-07T13:30:40.017Z,3.58
2022-08-07T13:34:33.090Z,3.92
2022-08-07T13:36:26.689Z,3.35
2022-08-07T13:39:12.737Z,3.30
2022-08-07T13:41:54.661Z,3.45
2022-08-07T13:44:26.399Z,3.72
2022-08-07T13:47:00.299Z,6.45
2022-08-07T13:50:34.121Z,3.80
2022-08-07T13:52:32.019Z,3.42
2022-08-07T13:55:07.435Z,3.80
2022-08-07T13:57:39.621Z,3.40
2022-08-07T14:00:50.355Z,3.50
2022-08-07T14:03:29.062Z,3.45
2022-08-07T14:06:12.753Z,3.65
2022-08-07T14:08:44.318Z,5.18
2022-08-07T14:11:19.128Z,5.00
2022-08-07T14:13:55.889Z,3.97
2022-08-07T14:16:31.471Z,5.25
2022-08-07T14:19:00.963Z,3.83
2022-08-07T14:22:02.318Z,3.50
2022-08-07T14:24:42.390Z,3.47
2022-08-07T14:27:16.078Z,3.53
2022-08-07T14:30:11.332Z,3.63
2022-08-07T14:35:15.222Z,3.50
2022-08-07T14:38:05.978Z,3.45
2022-08-07T14:40:35.396Z,3.40
2022-08-07T14:43:58.428Z,4.20
2022-08-07T14:46:03.999Z,3.20
2022-08-07T14:48:33.435Z,3.40
2022-08-07T14:51:15.787Z,7.15
2022-08-07T14:54:05.667Z,11.85
2022-08-07T14:56:32.567Z,11.03
2022-08-07T14:59:04.529Z,4.35
2022-08-07T15:04:40.001Z,3.37
2022-08-07T15:07:23.774Z,4.62
2022-08-07T15:13:18.293Z,3.72
2022-08-07T15:15:52.478Z,3.45
2022-08-07T15:18:29.518Z,4.30
2022-08-07T15:21:08.150Z,3.22
2022-08-07T15:25:02.801Z,4.43
2022-08-07T15:30:06.372Z,3.35
2022-08-07T15:32:01.876Z,4.25
2022-08-07T15:34:56.816Z,3.58
2022-08-07T15:37:28.326Z,3.67
2022-08-07T15:39:59.329Z,3.45
2022-08-07T15:48:36.064Z,3.55
2022-08-07T15:54:12.848Z,3.95
2022-08-07T15:56:41.628Z,3.20
2022-08-07T15:59:16.284Z,3.73
2022-08-07T16:02:02.352Z,4.35
2022-08-07T16:04:32.116Z,3.50
2022-08-07T16:07:04.545Z,3.58
2022-08-07T16:09:41.854Z,3.53
2022-08-07T16:12:29.164Z,4.30
2022-08-07T16:15:55.612Z,4.62
2022-08-07T16:18:49.848Z,3.50
2022-08-07T16:22:01.784Z,4.68
2022-08-07T16:24:34.562Z,3.10
2022-08-07T16:27:25.626Z,5.28
2022-08-07T16:30:31.498Z,3.55
2022-08-07T16:34:01.549Z,3.00
2022-08-07T16:36:20.882Z,3.85
2022-08-07T16:39:00.675Z,2.92
2022-08-07T16:42:12.470Z,4.78
2022-08-07T16:45:15.501Z,7.05
2022-08-07T16:48:27.757Z,3.90
2022-08-07T16:51:54.470Z,2.92
2022-08-07T16:54:34.651Z,5.53
2022-08-07T17:00:15.277Z,3.30
2022-08-07T17:03:04.827Z,3.55
2022-08-07T17:06:02.129Z,3.90
2022-08-07T17:09:09.684Z,4.55
2022-08-07T17:12:01.940Z,6.43
2022-08-07T17:14:42.688Z,4.75
2022-08-07T17:17:24.833Z,4.50
2022-08-07T17:20:31.834Z,3.90
2022-08-07T17:23:12.994Z,4.40
2022-08-07T17:26:02.213Z,4.30
2022-08-07T17:29:04.964Z,4.25
2022-08-07T17:31:44.177Z,5.20
2022-08-07T17:34:36.767Z,3.12
2022-08-07T17:38:11.348Z,3.53
2022-08-07T17:40:31.981Z,3.80
2022-08-07T17:43:15.075Z,3.78
2022-08-07T17:45:56.659Z,4.12
2022-08-07T17:48:30.867Z,8.25
2022-08-07T17:51:01.667Z,6.40
2022-08-07T17:54:00.710Z,3.90
2022-08-07T17:56:29.699Z,3.17
2022-08-07T17:58:58.431Z,4.53
2022-08-07T18:01:37.240Z,5.37
2022-08-07T18:04:22.501Z,3.33
2022-08-07T18:07:20.638Z,4.60
2022-08-07T18:10:06.062Z,3.75
2022-08-07T18:12:51.639Z,4.00
2022-08-07T18:15:24.129Z,3.30
2022-08-07T18:18:39.813Z,3.17
2022-08-07T18:21:29.626Z,3.80
2022-08-07T18:24:34.363Z,3.95
2022-08-07T18:27:20.977Z,4.28
2022-08-07T18:30:32.297Z,4.40
2022-08-07T18:33:27.970Z,3.22
2022-08-07T18:36:14.850Z,3.28
2022-08-07T18:40:06.961Z,4.47
2022-08-07T18:42:30.642Z,2.90
2022-08-07T18:45:43.219Z,5.10
2022-08-07T18:50:03.392Z,3.03
2022-08-07T18:52:37.995Z,2.70
2022-08-07T18:54:49.781Z,4.75
2022-08-07T18:57:59.459Z,2.55
2022-08-07T19:00:55.135Z,9.77
2022-08-07T19:03:38.143Z,12.27
2022-08-07T19:06:16.179Z,9.05
2022-08-07T19:09:00.404Z,2.53
2022-08-07T19:11:37.335Z,2.67
2022-08-07T19:14:26.245Z,2.55
2022-08-07T19:17:07.790Z,2.55
2022-08-07T19:20:01.299Z,2.70
2022-08-07T19:22:52.113Z,2.00
2022-08-07T19:26:25.178Z,2.10
2022-08-07T19:28:58.268Z,1.80
2022-08-07T19:31:38.207Z,1.70
2022-08-07T19:34:00.749Z,1.90
2022-08-07T19:36:29.609Z,1.80
2022-08-07T19:38:59.067Z,1.95
2022-08-07T19:41:39.231Z,1.87
2022-08-07T19:44:21.070Z,1.92
2022-08-07T19:46:57.633Z,2.78
2022-08-07T19:49:58.044Z,1.98
2022-08-07T19:52:17.341Z,1.67
2022-08-07T19:54:56.401Z,2.20
2022-08-07T19:58:02.455Z,1.77
2022-08-07T20:00:29.726Z,1.65
2022-08-07T20:03:31.375Z,1.98
2022-08-07T20:06:00.466Z,2.12
2022-08-07T20:08:31.831Z,2.12
2022-08-07T20:13:42.708Z,1.87
2022-08-07T20:16:22.409Z,1.52
2022-08-07T20:19:02.665Z,2.37
2022-08-07T20:21:46.635Z,1.77
2022-08-07T20:24:28.530Z,2.30
2022-08-07T20:26:58.622Z,2.03
2022-08-07T20:29:48.003Z,2.78
2022-08-07T20:32:22.981Z,1.58
2022-08-07T20:34:56.400Z,1.50
2022-08-07T20:37:25.590Z,1.90
2022-08-07T20:40:04.382Z,1.83
2022-08-07T20:42:33.877Z,2.20
2022-08-07T20:45:01.682Z,1.83
2022-08-07T20:47:56.303Z,1.98
2022-08-07T20:50:21.442Z,2.78
2022-08-07T20:52:51.615Z,1.87
2022-08-07T20:55:23.998Z,1.87
2022-08-07T20:58:19.692Z,1.70
2022-08-07T21:01:02.224Z,1.90
2022-08-07T21:03:29.594Z,1.80
2022-08-07T21:06:21.738Z,2.00
2022-08-07T21:09:13.743Z,1.85
2022-08-07T21:11:50.434Z,1.80
2022-08-07T21:14:33.855Z,1.75
2022-08-07T21:18:03.509Z,1.73
2022-08-07T21:20:04.776Z,1.60
2022-08-07T21:22:34.750Z,1.75
2022-08-07T21:25:56.397Z,1.77
2022-08-07T21:28:48.544Z,1.80
2022-08-07T21:31:49.956Z,1.83
2022-08-07T21:34:20.998Z,1.65
2022-08-07T21:36:59.583Z,1.50
2022-08-07T21:39:45.789Z,1.52
2022-08-07T21:42:46.793Z,1.80
2022-08-07T21:46:10.704Z,1.60
2022-08-07T21:48:56.427Z,2.40
2022-08-07T21:51:27.369Z,2.12
2022-08-07T21:54:33.106Z,1.92
2022-08-07T21:57:11.102Z,1.52
2022-08-07T22:00:23.017Z,1.50
2022-08-07T22:03:16.555Z,2.00
2022-08-07T22:05:51.281Z,1.70
2022-08-07T22:08:23.184Z,1.73
2022-08-07T22:10:54.967Z,1.92
2022-08-07T22:13:52.419Z,2.12
2022-08-07T22:16:44.519Z,1.98
2022-08-07T22:22:02.628Z,1.70
2022-08-07T22:24:44.274Z,1.58
2022-08-07T22:27:17.899Z,1.35
2022-08-07T22:29:50.253Z,1.77
2022-08-07T22:32:26.668Z,1.50
2022-08-07T22:34:57.243Z,1.35
2022-08-07T22:38:03.647Z,1.73
2022-08-07T22:40:43.047Z,1.30
2022-08-07T22:43:12.571Z,1.30
2022-08-07T22:46:40.499Z,2.05
2022-08-07T22:49:02.407Z,1.85
2022-08-07T22:51:51.957Z,1.83
2022-08-07T22:54:55.229Z,1.50
2022-08-07T22:57:59.020Z,1.40
2022-08-07T23:00:36.111Z,1.23
2022-08-07T23:03:58.967Z,1.30
2022-08-07T23:06:51.615Z,1.37
2022-08-07T23:10:04.110Z,1.70
2022-08-07T23:12:40.221Z,1.70
2022-08-07T23:16:06.452Z,1.62
2022-08-07T23:19:11.270Z,1.20
2022-08-07T23:22:08.651Z,1.30
2022-08-07T23:24:50.694Z,1.83
2022-08-07T23:28:22.471Z,1.62
2022-08-07T23:30:45.840Z,1.65
2022-08-07T23:34:35.850Z,1.50
2022-08-07T23:37:20.099Z,1.50
2022-08-07T23:40:12.845Z,1.62
2022-08-07T23:42:42.551Z,1.70
2022-08-07T23:46:02.830Z,1.52
2022-08-07T23:49:15.475Z,1.77
2022-08-07T23:52:59.748Z,1.40
2022-08-07T23:54:46.090Z,4.35
2022-08-07T23:57:36.717Z,1.42
